sensor_id;sensor_type;location;lat;lon;timestamp;pressure;altitude;pressure_sealevel;temperature;humidity
56374;BME280;58212;47.034;7.376;2024-03-23T00:56:01;94980.09;;;10.49;73.30
56374;BME280;58212;47.034;7.376;2024-03-23T00:58:28;94969.50;;;10.49;74.05
56374;BME280;58212;47.034;7.376;2024-03-23T01:00:54;94969.63;;;10.42;74.11
56374;BME280;58212;47.034;7.376;2024-03-23T01:03:21;94971.56;;;10.47;73.53
56374;BME280;58212;47.034;7.376;2024-03-23T01:05:47;94968.22;;;10.51;73.58
56374;BME280;58212;47.034;7.376;2024-03-23T01:08:16;94969.88;;;10.57;71.82
56374;BME280;58212;47.034;7.376;2024-03-23T01:10:54;94961.88;;;10.52;72.99
56374;BME280;58212;47.034;7.376;2024-03-23T01:13:21;94964.50;;;10.36;74.64
56374;BME280;58212;47.034;7.376;2024-03-23T01:15:48;94971.41;;;10.20;73.85
56374;BME280;58212;47.034;7.376;2024-03-23T01:18:15;94959.47;;;10.17;74.32
56374;BME280;58212;47.034;7.376;2024-03-23T01:20:41;94943.91;;;10.21;74.12
56374;BME280;58212;47.034;7.376;2024-03-23T01:23:08;94950.38;;;10.13;73.08
56374;BME280;58212;47.034;7.376;2024-03-23T01:25:33;94952.53;;;10.00;73.52
56374;BME280;58212;47.034;7.376;2024-03-23T01:28:01;94941.38;;;9.81;75.57
56374;BME280;58212;47.034;7.376;2024-03-23T01:30:27;94948.13;;;9.89;75.10
56374;BME280;58212;47.034;7.376;2024-03-23T01:32:54;94949.72;;;9.90;75.23
56374;BME280;58212;47.034;7.376;2024-03-23T01:35:20;94950.19;;;9.87;76.02
56374;BME280;58212;47.034;7.376;2024-03-23T01:37:47;94949.72;;;9.90;75.37
56374;BME280;58212;47.034;7.376;2024-03-23T01:40:13;94933.38;;;9.93;74.74
56374;BME280;58212;47.034;7.376;2024-03-23T01:42:39;94941.97;;;10.00;75.07
56374;BME280;58212;47.034;7.376;2024-03-23T01:45:08;94932.84;;;10.07;74.41
56374;BME280;58212;47.034;7.376;2024-03-23T01:47:35;94922.97;;;10.03;74.75
56374;BME280;58212;47.034;7.376;2024-03-23T01:50:01;94926.78;;;10.23;72.31
56374;BME280;58212;47.034;7.376;2024-03-23T01:52:28;94918.13;;;10.45;72.13
56374;BME280;58212;47.034;7.376;2024-03-23T01:54:55;94910.81;;;10.52;72.51
56374;BME280;58212;47.034;7.376;2024-03-23T01:57:21;94911.63;;;10.52;72.03
56374;BME280;58212;47.034;7.376;2024-03-23T01:59:48;94907.19;;;10.58;71.65
56374;BME280;58212;47.034;7.376;2024-03-23T02:02:24;94904.84;;;10.61;72.80
56374;BME280;58212;47.034;7.376;2024-03-23T02:04:51;94909.34;;;10.61;70.98
56374;BME280;58212;47.034;7.376;2024-03-23T02:07:17;94902.47;;;10.60;72.41
56374;BME280;58212;47.034;7.376;2024-03-23T02:09:44;94899.03;;;10.59;72.38
56374;BME280;58212;47.034;7.376;2024-03-23T02:12:09;94893.78;;;10.64;69.96
56374;BME280;58212;47.034;7.376;2024-03-23T02:14:37;94894.09;;;10.90;69.68
56374;BME280;58212;47.034;7.376;2024-03-23T02:17:02;94900.66;;;10.82;70.16
56374;BME280;58212;47.034;7.376;2024-03-23T02:19:31;94887.84;;;10.96;68.76
56374;BME280;58212;47.034;7.376;2024-03-23T02:21:57;94886.00;;;10.96;67.58
56374;BME280;58212;47.034;7.376;2024-03-23T02:24:25;94890.31;;;11.02;68.10
56374;BME280;58212;47.034;7.376;2024-03-23T02:26:51;94892.84;;;10.92;69.66
56374;BME280;58212;47.034;7.376;2024-03-23T02:29:18;94887.22;;;10.67;70.41
56374;BME280;58212;47.034;7.376;2024-03-23T02:31:47;94885.16;;;10.52;72.08
56374;BME280;58212;47.034;7.376;2024-03-23T02:34:14;94878.19;;;10.46;71.76
56374;BME280;58212;47.034;7.376;2024-03-23T02:36:39;94874.94;;;10.61;71.23
56374;BME280;58212;47.034;7.376;2024-03-23T02:39:06;94874.41;;;10.81;68.92
56374;BME280;58212;47.034;7.376;2024-03-23T02:41:33;94873.56;;;11.18;66.97
56374;BME280;58212;47.034;7.376;2024-03-23T02:44:01;94867.16;;;11.14;67.72
56374;BME280;58212;47.034;7.376;2024-03-23T02:46:26;94867.09;;;11.09;67.39
56374;BME280;58212;47.034;7.376;2024-03-23T02:48:53;94859.41;;;11.35;66.23
56374;BME280;58212;47.034;7.376;2024-03-23T02:51:19;94852.66;;;11.49;65.02
56374;BME280;58212;47.034;7.376;2024-03-23T02:53:46;94854.41;;;11.65;64.35
56374;BME280;58212;47.034;7.376;2024-03-23T02:56:12;94852.38;;;11.72;63.59
56374;BME280;58212;47.034;7.376;2024-03-23T02:58:42;94856.13;;;11.76;63.25
56374;BME280;58212;47.034;7.376;2024-03-23T03:01:08;94851.41;;;11.56;64.58
56374;BME280;58212;47.034;7.376;2024-03-23T03:03:36;94848.38;;;11.69;62.95
56374;BME280;58212;47.034;7.376;2024-03-23T03:06:02;94851.72;;;11.87;62.12
56374;BME280;58212;47.034;7.376;2024-03-23T03:08:28;94838.22;;;11.88;62.47
56374;BME280;58212;47.034;7.376;2024-03-23T03:10:54;94839.44;;;11.75;62.60
56374;BME280;58212;47.034;7.376;2024-03-23T03:13:21;94834.81;;;11.66;63.29
56374;BME280;58212;47.034;7.376;2024-03-23T03:15:49;94827.91;;;11.65;62.82
56374;BME280;58212;47.034;7.376;2024-03-23T03:18:16;94837.03;;;11.74;62.81
56374;BME280;58212;47.034;7.376;2024-03-23T03:20:41;94829.19;;;11.89;61.98
56374;BME280;58212;47.034;7.376;2024-03-23T03:23:09;94822.25;;;11.83;62.53
56374;BME280;58212;47.034;7.376;2024-03-23T03:25:35;94826.47;;;11.79;62.38
56374;BME280;58212;47.034;7.376;2024-03-23T03:28:03;94809.91;;;11.67;62.80
56374;BME280;58212;47.034;7.376;2024-03-23T03:30:29;94796.63;;;11.62;63.80
56374;BME280;58212;47.034;7.376;2024-03-23T03:32:57;94796.22;;;11.75;62.92
56374;BME280;58212;47.034;7.376;2024-03-23T03:35:23;94793.03;;;11.73;63.04
56374;BME280;58212;47.034;7.376;2024-03-23T03:37:50;94789.13;;;11.86;62.92
56374;BME280;58212;47.034;7.376;2024-03-23T03:40:16;94787.47;;;12.11;61.88
56374;BME280;58212;47.034;7.376;2024-03-23T03:42:43;94785.41;;;12.23;61.71
56374;BME280;58212;47.034;7.376;2024-03-23T03:45:10;94781.69;;;12.19;62.01
56374;BME280;58212;47.034;7.376;2024-03-23T03:47:37;94779.59;;;12.27;61.65
56374;BME280;58212;47.034;7.376;2024-03-23T03:50:05;94764.81;;;12.41;60.65
56374;BME280;58212;47.034;7.376;2024-03-23T03:52:32;94773.81;;;12.35;61.13
56374;BME280;58212;47.034;7.376;2024-03-23T03:55:01;94764.81;;;12.41;60.70
56374;BME280;58212;47.034;7.376;2024-03-23T03:57:29;94762.38;;;12.34;61.25
56374;BME280;58212;47.034;7.376;2024-03-23T03:59:57;94758.41;;;12.32;61.50
56374;BME280;58212;47.034;7.376;2024-03-23T04:02:24;94748.06;;;12.35;60.89
56374;BME280;58212;47.034;7.376;2024-03-23T04:04:50;94749.97;;;12.40;60.94
56374;BME280;58212;47.034;7.376;2024-03-23T04:07:19;94741.44;;;12.38;61.24
56374;BME280;58212;47.034;7.376;2024-03-23T04:09:48;94740.13;;;12.35;61.27
56374;BME280;58212;47.034;7.376;2024-03-23T04:12:15;94728.75;;;12.40;60.66
56374;BME280;58212;47.034;7.376;2024-03-23T04:14:40;94730.31;;;12.41;60.76
56374;BME280;58212;47.034;7.376;2024-03-23T04:17:07;94718.41;;;12.43;60.84
56374;BME280;58212;47.034;7.376;2024-03-23T04:19:33;94712.00;;;12.44;60.76
56374;BME280;58212;47.034;7.376;2024-03-23T04:22:00;94722.41;;;12.51;60.60
56374;BME280;58212;47.034;7.376;2024-03-23T04:24:27;94717.09;;;12.51;60.62
56374;BME280;58212;47.034;7.376;2024-03-23T04:26:54;94720.25;;;12.48;60.93
56374;BME280;58212;47.034;7.376;2024-03-23T04:29:20;94730.88;;;12.48;61.25
56374;BME280;58212;47.034;7.376;2024-03-23T04:31:47;94725.09;;;12.61;60.52
56374;BME280;58212;47.034;7.376;2024-03-23T04:34:13;94725.09;;;12.61;60.76
56374;BME280;58212;47.034;7.376;2024-03-23T04:36:40;94731.47;;;12.60;60.44
56374;BME280;58212;47.034;7.376;2024-03-23T04:39:06;94731.72;;;12.58;60.79
56374;BME280;58212;47.034;7.376;2024-03-23T04:41:35;94744.94;;;12.48;61.26
56374;BME280;58212;47.034;7.376;2024-03-23T04:44:02;94770.09;;;12.36;63.47
56374;BME280;58212;47.034;7.376;2024-03-23T04:46:29;94755.09;;;12.09;67.01
56374;BME280;58212;47.034;7.376;2024-03-23T04:48:56;94769.47;;;11.77;69.96
56374;BME280;58212;47.034;7.376;2024-03-23T04:51:23;94772.25;;;11.65;72.64
56374;BME280;58212;47.034;7.376;2024-03-23T04:53:51;94766.69;;;11.30;72.29
56374;BME280;58212;47.034;7.376;2024-03-23T04:56:19;94750.72;;;11.24;73.17
56374;BME280;58212;47.034;7.376;2024-03-23T04:58:46;94760.28;;;11.25;72.93
56374;BME280;58212;47.034;7.376;2024-03-23T05:01:13;94778.97;;;11.14;73.43
56374;BME280;58212;47.034;7.376;2024-03-23T05:03:39;94785.00;;;11.09;74.74
56374;BME280;58212;47.034;7.376;2024-03-23T05:06:06;94787.81;;;10.76;77.91
56374;BME280;58212;47.034;7.376;2024-03-23T05:08:32;94790.13;;;10.67;79.48
56374;BME280;58212;47.034;7.376;2024-03-23T05:10:59;94797.69;;;10.59;81.57
56374;BME280;58212;47.034;7.376;2024-03-23T05:13:25;94810.66;;;10.60;82.31
56374;BME280;58212;47.034;7.376;2024-03-23T05:15:54;94816.53;;;10.46;82.97
56374;BME280;58212;47.034;7.376;2024-03-23T05:18:19;94810.47;;;10.45;83.97
56374;BME280;58212;47.034;7.376;2024-03-23T05:20:46;94819.25;;;10.29;85.39
56374;BME280;58212;47.034;7.376;2024-03-23T05:23:12;94814.34;;;10.21;86.52
56374;BME280;58212;47.034;7.376;2024-03-23T05:25:39;94808.25;;;10.37;86.04
56374;BME280;58212;47.034;7.376;2024-03-23T05:28:05;94816.19;;;10.20;85.94
56374;BME280;58212;47.034;7.376;2024-03-23T05:30:32;94820.28;;;10.28;86.03
56374;BME280;58212;47.034;7.376;2024-03-23T05:32:59;94807.81;;;10.23;86.73
56374;BME280;58212;47.034;7.376;2024-03-23T05:35:26;94793.59;;;10.29;86.12
56374;BME280;58212;47.034;7.376;2024-03-23T05:37:52;94791.63;;;10.03;86.63
56374;BME280;58212;47.034;7.376;2024-03-23T05:40:18;94810.19;;;10.08;86.87
56374;BME280;58212;47.034;7.376;2024-03-23T05:42:45;94817.00;;;10.04;87.00
56374;BME280;58212;47.034;7.376;2024-03-23T05:45:12;94824.94;;;10.04;86.79
56374;BME280;58212;47.034;7.376;2024-03-23T05:47:38;94820.72;;;9.87;87.37
56374;BME280;58212;47.034;7.376;2024-03-23T05:50:06;94821.19;;;10.00;87.00
56374;BME280;58212;47.034;7.376;2024-03-23T05:52:33;94825.56;;;10.11;85.70
56374;BME280;58212;47.034;7.376;2024-03-23T05:54:59;94827.91;;;10.08;84.87
56374;BME280;58212;47.034;7.376;2024-03-23T05:57:25;94827.97;;;10.13;85.01
56374;BME280;58212;47.034;7.376;2024-03-23T05:59:52;94830.59;;;10.13;84.35
56374;BME280;58212;47.034;7.376;2024-03-23T06:02:18;94841.28;;;10.01;83.38
56374;BME280;58212;47.034;7.376;2024-03-23T06:04:45;94847.75;;;10.10;83.01
56374;BME280;58212;47.034;7.376;2024-03-23T06:07:12;94869.03;;;10.15;82.18
56374;BME280;58212;47.034;7.376;2024-03-23T06:09:40;94849.53;;;10.05;81.80
56374;BME280;58212;47.034;7.376;2024-03-23T06:12:06;94858.72;;;10.02;82.27
56374;BME280;58212;47.034;7.376;2024-03-23T06:14:34;94864.75;;;9.98;80.88
56374;BME280;58212;47.034;7.376;2024-03-23T06:17:00;94865.22;;;9.95;80.28
56374;BME280;58212;47.034;7.376;2024-03-23T06:19:27;94888.84;;;9.85;80.38
56374;BME280;58212;47.034;7.376;2024-03-23T06:21:53;94878.91;;;9.75;80.57
56374;BME280;58212;47.034;7.376;2024-03-23T06:24:22;94889.66;;;9.85;80.76
56374;BME280;58212;47.034;7.376;2024-03-23T06:26:48;94903.19;;;9.72;80.02
56374;BME280;58212;47.034;7.376;2024-03-23T06:29:15;94909.50;;;9.88;79.44
56374;BME280;58212;47.034;7.376;2024-03-23T06:31:41;94925.22;;;9.94;77.47
56374;BME280;58212;47.034;7.376;2024-03-23T06:34:08;94927.38;;;9.97;77.98
56374;BME280;58212;47.034;7.376;2024-03-23T06:36:34;94926.97;;;9.89;77.50
56374;BME280;58212;47.034;7.376;2024-03-23T06:39:04;94942.13;;;9.93;77.63
56374;BME280;58212;47.034;7.376;2024-03-23T06:41:31;94951.78;;;9.88;78.16
56374;BME280;58212;47.034;7.376;2024-03-23T06:43:58;94946.59;;;9.93;76.78
56374;BME280;58212;47.034;7.376;2024-03-23T06:46:24;94955.72;;;10.02;76.37
56374;BME280;58212;47.034;7.376;2024-03-23T06:48:50;94970.16;;;10.11;76.29
56374;BME280;58212;47.034;7.376;2024-03-23T06:51:19;94966.97;;;10.09;75.97
56374;BME280;58212;47.034;7.376;2024-03-23T06:53:46;94958.47;;;9.90;76.01
56374;BME280;58212;47.034;7.376;2024-03-23T06:56:11;94953.81;;;9.97;76.18
56374;BME280;58212;47.034;7.376;2024-03-23T06:58:39;94958.91;;;10.15;75.85
56374;BME280;58212;47.034;7.376;2024-03-23T07:01:05;94958.09;;;10.15;74.98
56374;BME280;58212;47.034;7.376;2024-03-23T07:03:32;94950.00;;;10.21;74.30
56374;BME280;58212;47.034;7.376;2024-03-23T07:05:58;94948.88;;;10.17;74.81
56374;BME280;58212;47.034;7.376;2024-03-23T07:08:25;94968.13;;;10.29;74.51
56374;BME280;58212;47.034;7.376;2024-03-23T07:10:51;94967.50;;;10.22;74.98
56374;BME280;58212;47.034;7.376;2024-03-23T07:13:18;94983.53;;;10.16;74.13
56374;BME280;58212;47.034;7.376;2024-03-23T07:15:51;94980.75;;;10.11;73.85
56374;BME280;58212;47.034;7.376;2024-03-23T07:18:18;94984.81;;;10.30;73.00
56374;BME280;58212;47.034;7.376;2024-03-23T07:20:52;94992.69;;;10.13;73.78
56374;BME280;58212;47.034;7.376;2024-03-23T07:23:19;94999.78;;;10.24;73.70
56374;BME280;58212;47.034;7.376;2024-03-23T07:25:45;95013.25;;;10.23;72.72
56374;BME280;58212;47.034;7.376;2024-03-23T07:28:12;95025.34;;;10.19;72.94
56374;BME280;58212;47.034;7.376;2024-03-23T07:30:38;95050.03;;;10.13;73.94
56374;BME280;58212;47.034;7.376;2024-03-23T07:33:06;95072.13;;;10.18;74.08
56374;BME280;58212;47.034;7.376;2024-03-23T07:35:32;95072.00;;;9.85;71.47
56374;BME280;58212;47.034;7.376;2024-03-23T07:37:59;95080.69;;;9.57;71.73
56374;BME280;58212;47.034;7.376;2024-03-23T07:40:31;95086.06;;;9.51;70.74
56374;BME280;58212;47.034;7.376;2024-03-23T07:42:57;95083.22;;;9.52;71.22
56374;BME280;58212;47.034;7.376;2024-03-23T07:45:23;95079.22;;;9.50;69.16
56374;BME280;58212;47.034;7.376;2024-03-23T07:47:50;95090.69;;;9.44;70.61
56374;BME280;58212;47.034;7.376;2024-03-23T07:50:17;95095.47;;;9.70;69.48
56374;BME280;58212;47.034;7.376;2024-03-23T07:52:44;95107.59;;;9.31;69.22
56374;BME280;58212;47.034;7.376;2024-03-23T07:55:10;95121.72;;;9.13;70.07
56374;BME280;58212;47.034;7.376;2024-03-23T07:57:37;95119.31;;;9.23;71.35
56374;BME280;58212;47.034;7.376;2024-03-23T08:00:04;95131.78;;;9.51;69.65
56374;BME280;58212;47.034;7.376;2024-03-23T08:02:31;95129.38;;;8.92;68.20
56374;BME280;58212;47.034;7.376;2024-03-23T08:04:57;95126.06;;;9.31;70.32
56374;BME280;58212;47.034;7.376;2024-03-23T08:07:25;95127.78;;;8.91;69.21
56374;BME280;58212;47.034;7.376;2024-03-23T08:09:51;95133.84;;;8.79;69.88
56374;BME280;58212;47.034;7.376;2024-03-23T08:12:18;95129.28;;;8.98;70.40
56374;BME280;58212;47.034;7.376;2024-03-23T08:14:45;95141.09;;;9.19;68.92
56374;BME280;58212;47.034;7.376;2024-03-23T08:17:11;95147.75;;;9.33;69.59
56374;BME280;58212;47.034;7.376;2024-03-23T08:19:37;95157.88;;;9.13;67.17
56374;BME280;58212;47.034;7.376;2024-03-23T08:22:04;95160.53;;;9.24;67.55
56374;BME280;58212;47.034;7.376;2024-03-23T08:24:32;95167.63;;;9.24;68.67
56374;BME280;58212;47.034;7.376;2024-03-23T08:26:58;95171.75;;;9.55;67.35
56374;BME280;58212;47.034;7.376;2024-03-23T08:29:24;95174.84;;;9.63;66.40
56374;BME280;58212;47.034;7.376;2024-03-23T08:31:51;95176.09;;;9.14;67.22
56374;BME280;58212;47.034;7.376;2024-03-23T08:34:17;95178.81;;;8.96;67.85
56374;BME280;58212;47.034;7.376;2024-03-23T08:36:43;95178.13;;;8.89;68.16
56374;BME280;58212;47.034;7.376;2024-03-23T08:39:09;95178.59;;;8.98;69.44
56374;BME280;58212;47.034;7.376;2024-03-23T08:41:38;95191.94;;;9.26;67.28
56374;BME280;58212;47.034;7.376;2024-03-23T08:44:04;95189.00;;;9.57;67.84
56374;BME280;58212;47.034;7.376;2024-03-23T08:46:30;95208.59;;;9.15;67.38
56374;BME280;58212;47.034;7.376;2024-03-23T08:48:56;95207.59;;;9.39;67.64
56374;BME280;58212;47.034;7.376;2024-03-23T08:51:23;95224.53;;;9.08;66.72
56374;BME280;58212;47.034;7.376;2024-03-23T08:53:49;95210.09;;;8.69;66.81
56374;BME280;58212;47.034;7.376;2024-03-23T08:56:16;95227.34;;;8.83;67.41
56374;BME280;58212;47.034;7.376;2024-03-23T08:58:44;95232.78;;;8.70;66.21
56374;BME280;58212;47.034;7.376;2024-03-23T09:01:12;95234.31;;;8.30;65.88
56374;BME280;58212;47.034;7.376;2024-03-23T09:03:39;95249.31;;;8.11;65.11
56374;BME280;58212;47.034;7.376;2024-03-23T09:06:07;95265.91;;;7.94;65.51
56374;BME280;58212;47.034;7.376;2024-03-23T09:08:33;95252.53;;;8.50;65.33
56374;BME280;58212;47.034;7.376;2024-03-23T09:11:04;95251.75;;;8.79;62.79
56374;BME280;58212;47.034;7.376;2024-03-23T09:13:32;95257.94;;;9.14;62.98
56374;BME280;58212;47.034;7.376;2024-03-23T09:16:00;95257.69;;;9.04;62.39
56374;BME280;58212;47.034;7.376;2024-03-23T09:18:26;95267.63;;;9.44;61.46
56374;BME280;58212;47.034;7.376;2024-03-23T09:20:53;95262.94;;;9.80;61.01
56374;BME280;58212;47.034;7.376;2024-03-23T09:23:20;95268.38;;;9.09;61.81
56374;BME280;58212;47.034;7.376;2024-03-23T09:25:47;95258.06;;;9.19;61.17
56374;BME280;58212;47.034;7.376;2024-03-23T09:28:12;95264.38;;;8.89;60.75
56374;BME280;58212;47.034;7.376;2024-03-23T09:30:39;95264.69;;;8.80;61.42
56374;BME280;58212;47.034;7.376;2024-03-23T09:33:09;95257.31;;;9.65;60.60
56374;BME280;58212;47.034;7.376;2024-03-23T09:35:37;95261.81;;;9.65;60.76
56374;BME280;58212;47.034;7.376;2024-03-23T09:38:03;95266.84;;;9.55;60.86
56374;BME280;58212;47.034;7.376;2024-03-23T09:40:30;95252.97;;;9.82;59.96
56374;BME280;58212;47.034;7.376;2024-03-23T09:42:57;95260.19;;;10.10;60.67
56374;BME280;58212;47.034;7.376;2024-03-23T09:45:27;95252.13;;;10.05;60.93
56374;BME280;58212;47.034;7.376;2024-03-23T09:47:54;95251.59;;;10.15;59.97
56374;BME280;58212;47.034;7.376;2024-03-23T09:50:22;95265.84;;;9.79;59.64
56374;BME280;58212;47.034;7.376;2024-03-23T09:52:48;95262.31;;;9.20;60.79
56374;BME280;58212;47.034;7.376;2024-03-23T09:55:15;95274.31;;;9.46;60.96
56374;BME280;58212;47.034;7.376;2024-03-23T09:57:41;95289.16;;;9.17;61.84
56374;BME280;58212;47.034;7.376;2024-03-23T10:00:09;95297.81;;;9.36;62.16
56374;BME280;58212;47.034;7.376;2024-03-23T10:02:37;95295.31;;;9.41;61.25
56374;BME280;58212;47.034;7.376;2024-03-23T10:05:05;95299.91;;;9.46;61.20
56374;BME280;58212;47.034;7.376;2024-03-23T10:07:46;95289.84;;;10.01;59.17
56374;BME280;58212;47.034;7.376;2024-03-23T10:10:15;95293.50;;;9.88;59.86
56374;BME280;58212;47.034;7.376;2024-03-23T10:12:44;95297.44;;;10.09;60.61
56374;BME280;58212;47.034;7.376;2024-03-23T10:15:18;95292.50;;;10.01;59.87
56374;BME280;58212;47.034;7.376;2024-03-23T10:17:45;95287.41;;;10.46;57.50
56374;BME280;58212;47.034;7.376;2024-03-23T10:20:11;95288.69;;;10.43;56.36
56374;BME280;58212;47.034;7.376;2024-03-23T10:22:39;95287.78;;;9.79;57.28
56374;BME280;58212;47.034;7.376;2024-03-23T10:25:09;95290.31;;;10.33;57.34
56374;BME280;58212;47.034;7.376;2024-03-23T10:27:37;95291.22;;;10.03;54.42
56374;BME280;58212;47.034;7.376;2024-03-23T10:30:10;95285.50;;;10.18;54.59
56374;BME280;58212;47.034;7.376;2024-03-23T10:32:37;95283.06;;;10.28;53.54
56374;BME280;58212;47.034;7.376;2024-03-23T10:35:16;95282.47;;;10.49;53.32
56374;BME280;58212;47.034;7.376;2024-03-23T10:37:45;95279.75;;;10.72;51.38
56374;BME280;58212;47.034;7.376;2024-03-23T10:40:13;95284.00;;;11.02;50.14
56374;BME280;58212;47.034;7.376;2024-03-23T10:42:40;95284.88;;;10.79;49.06
56374;BME280;58212;47.034;7.376;2024-03-23T10:45:07;95296.34;;;11.41;48.45
56374;BME280;58212;47.034;7.376;2024-03-23T10:47:35;95297.47;;;11.28;47.79
56374;BME280;58212;47.034;7.376;2024-03-23T10:50:03;95299.00;;;10.96;48.65
56374;BME280;58212;47.034;7.376;2024-03-23T10:52:31;95297.19;;;11.13;47.70
56374;BME280;58212;47.034;7.376;2024-03-23T10:54:57;95296.78;;;11.50;47.14
56374;BME280;58212;47.034;7.376;2024-03-23T10:57:32;95298.84;;;11.76;46.72
56374;BME280;58212;47.034;7.376;2024-03-23T11:00:02;95299.25;;;11.40;47.30
56374;BME280;58212;47.034;7.376;2024-03-23T11:02:29;95300.28;;;11.22;47.41
56374;BME280;58212;47.034;7.376;2024-03-23T11:04:55;95308.09;;;11.00;48.08
56374;BME280;58212;47.034;7.376;2024-03-23T11:07:29;95318.44;;;11.92;45.07
56374;BME280;58212;47.034;7.376;2024-03-23T11:09:56;95306.44;;;11.89;47.04
56374;BME280;58212;47.034;7.376;2024-03-23T11:12:28;95311.34;;;10.79;48.67
56374;BME280;58212;47.034;7.376;2024-03-23T11:14:59;95318.53;;;11.07;49.26
56374;BME280;58212;47.034;7.376;2024-03-23T11:17:27;95326.09;;;11.15;49.00
56374;BME280;58212;47.034;7.376;2024-03-23T11:19:54;95313.31;;;10.84;48.54
56374;BME280;58212;47.034;7.376;2024-03-23T11:22:38;95316.41;;;11.20;49.31
56374;BME280;58212;47.034;7.376;2024-03-23T11:25:13;95306.78;;;11.31;48.60
56374;BME280;58212;47.034;7.376;2024-03-23T11:27:41;95296.59;;;11.40;45.91
56374;BME280;58212;47.034;7.376;2024-03-23T11:30:14;95301.44;;;10.86;45.67
56374;BME280;58212;47.034;7.376;2024-03-23T11:32:42;95291.28;;;10.66;45.86
56374;BME280;58212;47.034;7.376;2024-03-23T11:35:25;95302.22;;;10.98;45.67
56374;BME280;58212;47.034;7.376;2024-03-23T11:38:05;95300.69;;;10.74;46.01
56374;BME280;58212;47.034;7.376;2024-03-23T11:40:32;95309.88;;;11.11;46.65
56374;BME280;58212;47.034;7.376;2024-03-23T11:43:03;95311.59;;;11.34;45.56
56374;BME280;58212;47.034;7.376;2024-03-23T11:45:34;95296.22;;;11.64;47.59
56374;BME280;58212;47.034;7.376;2024-03-23T11:48:07;95306.69;;;10.58;47.69
56374;BME280;58212;47.034;7.376;2024-03-23T11:50:37;95294.06;;;11.16;46.77
56374;BME280;58212;47.034;7.376;2024-03-23T11:53:15;95286.34;;;11.60;46.57
56374;BME280;58212;47.034;7.376;2024-03-23T11:55:43;95288.91;;;11.55;45.25
56374;BME280;58212;47.034;7.376;2024-03-23T11:58:12;95280.19;;;12.26;44.61
56374;BME280;58212;47.034;7.376;2024-03-23T12:00:38;95283.16;;;11.74;44.62
56374;BME280;58212;47.034;7.376;2024-03-23T12:03:05;95274.53;;;11.51;46.95
56374;BME280;58212;47.034;7.376;2024-03-23T12:05:31;95270.28;;;11.66;47.40
56374;BME280;58212;47.034;7.376;2024-03-23T12:08:18;95269.69;;;11.31;46.28
56374;BME280;58212;47.034;7.376;2024-03-23T12:10:46;95264.91;;;10.20;48.14
56374;BME280;58212;47.034;7.376;2024-03-23T12:13:16;95258.72;;;10.66;47.68
56374;BME280;58212;47.034;7.376;2024-03-23T12:15:43;95262.06;;;11.18;45.98
56374;BME280;58212;47.034;7.376;2024-03-23T12:18:11;95265.28;;;10.92;43.23
56374;BME280;58212;47.034;7.376;2024-03-23T12:20:37;95264.56;;;11.24;43.81
56374;BME280;58212;47.034;7.376;2024-03-23T12:23:05;95257.34;;;11.37;43.08
56374;BME280;58212;47.034;7.376;2024-03-23T12:25:31;95252.94;;;11.59;43.07
56374;BME280;58212;47.034;7.376;2024-03-23T12:27:59;95240.38;;;12.04;43.05
56374;BME280;58212;47.034;7.376;2024-03-23T12:30:26;95251.72;;;12.00;43.05
56374;BME280;58212;47.034;7.376;2024-03-23T12:32:53;95243.13;;;11.59;40.47
56374;BME280;58212;47.034;7.376;2024-03-23T12:35:18;95254.00;;;11.13;39.68
56374;BME280;58212;47.034;7.376;2024-03-23T12:37:45;95231.94;;;10.79;40.52
56374;BME280;58212;47.034;7.376;2024-03-23T12:40:11;95230.22;;;11.30;40.83
56374;BME280;58212;47.034;7.376;2024-03-23T12:42:40;95225.47;;;11.48;41.58
56374;BME280;58212;47.034;7.376;2024-03-23T12:45:06;95233.88;;;11.45;43.06
56374;BME280;58212;47.034;7.376;2024-03-23T12:47:35;95229.91;;;11.26;40.57
56374;BME280;58212;47.034;7.376;2024-03-23T12:50:01;95223.81;;;10.97;42.00
56374;BME280;58212;47.034;7.376;2024-03-23T12:52:27;95224.78;;;10.63;42.45
56374;BME280;58212;47.034;7.376;2024-03-23T12:54:54;95217.88;;;10.62;43.61
56374;BME280;58212;47.034;7.376;2024-03-23T12:57:23;95228.00;;;10.93;43.41
56374;BME280;58212;47.034;7.376;2024-03-23T12:59:50;95222.88;;;10.75;44.21
56374;BME280;58212;47.034;7.376;2024-03-23T13:02:18;95222.38;;;10.61;44.08
56374;BME280;58212;47.034;7.376;2024-03-23T13:04:46;95222.97;;;10.23;44.92
56374;BME280;58212;47.034;7.376;2024-03-23T13:07:15;95210.66;;;10.17;45.38
56374;BME280;58212;47.034;7.376;2024-03-23T13:09:41;95224.09;;;10.67;46.04
56374;BME280;58212;47.034;7.376;2024-03-23T13:12:08;95212.53;;;10.73;45.84
56374;BME280;58212;47.034;7.376;2024-03-23T13:14:34;95202.81;;;11.07;45.26
56374;BME280;58212;47.034;7.376;2024-03-23T13:17:01;95194.56;;;11.37;45.05
56374;BME280;58212;47.034;7.376;2024-03-23T13:19:27;95201.97;;;11.52;45.51
56374;BME280;58212;47.034;7.376;2024-03-23T13:22:00;95195.59;;;11.03;45.56
56374;BME280;58212;47.034;7.376;2024-03-23T13:24:27;95195.19;;;11.11;43.07
56374;BME280;58212;47.034;7.376;2024-03-23T13:26:57;95179.22;;;11.72;42.81
56374;BME280;58212;47.034;7.376;2024-03-23T13:29:24;95181.53;;;11.52;43.72
56374;BME280;58212;47.034;7.376;2024-03-23T13:31:52;95181.38;;;11.75;42.90
56374;BME280;58212;47.034;7.376;2024-03-23T13:34:18;95178.88;;;11.52;44.10
56374;BME280;58212;47.034;7.376;2024-03-23T13:36:46;95168.47;;;11.46;43.35
56374;BME280;58212;47.034;7.376;2024-03-23T13:39:14;95160.19;;;11.97;42.29
56374;BME280;58212;47.034;7.376;2024-03-23T13:41:42;95155.47;;;11.99;41.69
56374;BME280;58212;47.034;7.376;2024-03-23T13:44:09;95158.69;;;11.30;43.23
56374;BME280;58212;47.034;7.376;2024-03-23T13:46:37;95150.94;;;11.45;43.32
56374;BME280;58212;47.034;7.376;2024-03-23T13:49:03;95139.25;;;11.41;42.89
56374;BME280;58212;47.034;7.376;2024-03-23T13:51:30;95136.78;;;11.17;42.87
56374;BME280;58212;47.034;7.376;2024-03-23T13:53:56;95146.72;;;11.44;42.71
56374;BME280;58212;47.034;7.376;2024-03-23T13:56:27;95134.38;;;11.88;42.21
56374;BME280;58212;47.034;7.376;2024-03-23T13:58:54;95139.97;;;11.19;44.73